Time;durP1;ratioP1;P1;durP2;ratioP2;P2;SDS_P1;SDS_P2;PMS_P1;PMS_P2;Temp;Humidity;BMP_temperature;BMP_pressure;BME280_temperature;BME280_humidity;BME280_pressure;Samples;Min_cycle;Max_cycle;Signal;HPM_P1;HPM_P2
2021/07/01 00:01:44;;;;;;;11.52;2.40;;;23.20;99.90;;;;;;5012502;28;19913;-74
2021/07/01 00:04:10;;;;;;;12.35;1.80;;;23.30;99.90;;;;;;5012998;28;20014;-74
2021/07/01 00:06:36;;;;;;;9.98;1.70;;;23.20;99.90;;;;;;5012369;28;20025;-74
2021/07/01 00:09:02;;;;;;;9.57;1.75;;;23.30;99.90;;;;;;5012645;28;20096;-74
2021/07/01 00:11:28;;;;;;;12.65;2.05;;;23.20;99.90;;;;;;5012102;28;20079;-74
2021/07/01 00:13:54;;;;;;;15.05;1.83;;;23.30;99.90;;;;;;5012030;28;20477;-74
2021/07/01 00:16:20;;;;;;;9.13;2.47;;;23.20;99.90;;;;;;5010773;28;20033;-74
2021/07/01 00:18:46;;;;;;;16.60;1.85;;;23.20;99.90;;;;;;5011419;28;20018;-74
2021/07/01 00:21:12;;;;;;;10.32;1.88;;;23.20;99.90;;;;;;5011633;28;20052;-74
2021/07/01 00:23:38;;;;;;;6.40;1.30;;;23.20;99.90;;;;;;5011996;28;20021;-74
2021/07/01 00:26:03;;;;;;;6.88;1.50;;;23.20;99.90;;;;;;5012440;28;20115;-74
2021/07/01 00:28:29;;;;;;;7.22;1.52;;;23.10;99.90;;;;;;5011465;28;20030;-74
2021/07/01 00:30:54;;;;;;;16.15;2.20;;;23.10;99.90;;;;;;5012113;28;20109;-74
2021/07/01 00:33:20;;;;;;;18.52;2.70;;;23.10;99.90;;;;;;5012539;28;20025;-74
2021/07/01 00:35:46;;;;;;;12.02;2.15;;;23.10;99.90;;;;;;5012720;28;20356;-74
2021/07/01 00:38:11;;;;;;;4.82;1.58;;;23.10;99.90;;;;;;5012074;28;20106;-73
2021/07/01 00:40:37;;;;;;;6.85;1.80;;;23.10;99.90;;;;;;5012245;28;20036;-74
2021/07/01 00:43:03;;;;;;;14.57;1.52;;;23.10;99.90;;;;;;5012196;28;20363;-74
2021/07/01 00:45:29;;;;;;;9.55;2.63;;;23.10;99.90;;;;;;5011122;28;20061;-73
2021/07/01 00:47:54;;;;;;;9.32;1.73;;;23.00;99.90;;;;;;5012427;28;20080;-74
2021/07/01 00:50:22;;;;;;;17.50;2.50;;;23.00;99.90;;;;;;5012351;28;20032;-74
2021/07/01 00:52:48;;;;;;;10.25;1.88;;;23.00;99.90;;;;;;5012366;28;20116;-74
2021/07/01 00:55:14;;;;;;;8.57;1.75;;;23.00;99.90;;;;;;5012289;28;20528;-74
2021/07/01 00:57:40;;;;;;;11.30;1.75;;;23.00;99.90;;;;;;5012356;28;20134;-74
2021/07/01 01:00:21;;;;;;;6.03;1.52;;;23.00;99.90;;;;;;5010380;28;20462;-74
2021/07/01 01:02:46;;;;;;;6.25;1.65;;;22.90;99.90;;;;;;5010848;28;20065;-74
2021/07/01 01:05:12;;;;;;;16.67;2.30;;;22.90;99.90;;;;;;5010862;28;20144;-74
2021/07/01 01:07:38;;;;;;;11.50;1.88;;;22.90;99.90;;;;;;5010498;28;20064;-74
2021/07/01 01:10:06;;;;;;;11.30;1.70;;;22.90;99.90;;;;;;5010844;28;20036;-74
2021/07/01 01:12:32;;;;;;;10.52;1.55;;;22.90;99.90;;;;;;5010232;28;20018;-74
2021/07/01 01:14:58;;;;;;;6.22;1.60;;;22.80;99.90;;;;;;5010340;28;20076;-74
2021/07/01 01:17:24;;;;;;;6.15;1.80;;;22.80;99.90;;;;;;5010391;28;20123;-74
2021/07/01 01:19:49;;;;;;;7.15;1.80;;;22.70;99.90;;;;;;5010732;28;20022;-73
2021/07/01 01:22:15;;;;;;;9.77;1.88;;;22.70;99.90;;;;;;4994111;28;20598;-74
2021/07/01 01:24:40;;;;;;;13.73;1.55;;;22.70;99.90;;;;;;5011551;28;20025;-74
2021/07/01 01:27:06;;;;;;;6.07;1.55;;;22.60;99.90;;;;;;5010076;28;20037;-74
2021/07/01 01:29:32;;;;;;;8.73;1.35;;;22.60;99.90;;;;;;5010144;28;20108;-73
2021/07/01 01:31:57;;;;;;;17.65;2.10;;;22.70;99.90;;;;;;5010784;28;20387;-74
2021/07/01 01:34:23;;;;;;;14.38;1.45;;;22.70;99.90;;;;;;5010804;28;20233;-73
2021/07/01 01:36:49;;;;;;;6.70;1.95;;;22.80;99.90;;;;;;4993115;28;20107;-74
2021/07/01 01:39:18;;;;;;;15.23;2.47;;;22.80;99.90;;;;;;5010372;28;20022;-74
2021/07/01 01:41:44;;;;;;;16.77;2.17;;;22.80;99.90;;;;;;5011521;28;20041;-73
2021/07/01 01:44:09;;;;;;;7.47;1.50;;;22.80;99.90;;;;;;5012313;28;20026;-73
2021/07/01 01:46:39;;;;;;;9.15;2.15;;;22.70;99.90;;;;;;5011126;28;20069;-74
2021/07/01 01:49:06;;;;;;;15.07;2.47;;;22.70;99.90;;;;;;5010177;28;20132;-73
2021/07/01 01:51:32;;;;;;;13.65;2.47;;;22.70;99.90;;;;;;5009661;28;20033;-74
2021/07/01 01:53:58;;;;;;;8.85;2.30;;;22.60;99.90;;;;;;5009793;28;20072;-73
2021/07/01 01:56:24;;;;;;;9.43;2.58;;;22.60;99.90;;;;;;5010298;28;20666;-74
2021/07/01 01:58:50;;;;;;;6.60;1.95;;;22.50;99.90;;;;;;5013377;28;20044;-74
2021/07/01 02:01:15;;;;;;;11.30;1.98;;;22.50;99.90;;;;;;5013672;28;20057;-73
2021/07/01 02:03:41;;;;;;;7.20;2.03;;;22.40;99.90;;;;;;4997753;28;20029;-73
2021/07/01 02:06:07;;;;;;;9.45;2.67;;;22.40;99.90;;;;;;5015357;28;20032;-73
2021/07/01 02:08:33;;;;;;;7.03;1.92;;;22.30;99.90;;;;;;5014980;28;20061;-74
2021/07/01 02:10:59;;;;;;;12.57;2.00;;;22.20;99.90;;;;;;5015226;28;20036;-74
2021/07/01 02:13:24;;;;;;;7.35;1.65;;;22.20;99.90;;;;;;5015157;28;20018;-74
2021/07/01 02:15:50;;;;;;;17.50;2.63;;;22.10;99.90;;;;;;5015148;28;20367;-73
2021/07/01 02:18:16;;;;;;;12.18;2.00;;;22.00;99.90;;;;;;5015397;28;20364;-73
2021/07/01 02:20:41;;;;;;;8.07;2.10;;;21.90;99.90;;;;;;4997101;28;20030;-74
2021/07/01 02:23:07;;;;;;;10.63;2.10;;;21.90;99.90;;;;;;5013327;28;20063;-74
2021/07/01 02:25:34;;;;;;;15.50;1.85;;;21.80;99.90;;;;;;5013222;28;20033;-74
2021/07/01 02:28:00;;;;;;;6.15;2.22;;;21.80;99.90;;;;;;5014779;28;20033;-74
2021/07/01 02:30:26;;;;;;;13.35;1.83;;;21.70;99.90;;;;;;5013763;28;20038;-74
2021/07/01 02:32:51;;;;;;;5.57;1.85;;;21.70;99.90;;;;;;5015079;28;20119;-74
2021/07/01 02:35:17;;;;;;;16.02;2.70;;;21.60;99.90;;;;;;5014787;28;20018;-74
2021/07/01 02:37:43;;;;;;;13.23;2.95;;;21.60;99.90;;;;;;5013769;28;20112;-74
2021/07/01 02:40:15;;;;;;;9.77;2.53;;;21.50;99.90;;;;;;5012583;28;20026;-74
2021/07/01 02:42:42;;;;;;;7.40;1.92;;;21.50;99.90;;;;;;5012869;28;20148;-74
2021/07/01 02:45:10;;;;;;;15.20;2.33;;;21.50;99.90;;;;;;5013033;28;20018;-73
2021/07/01 02:47:36;;;;;;;9.80;2.22;;;21.50;99.90;;;;;;5012344;28;20072;-74
2021/07/01 02:50:04;;;;;;;13.80;3.00;;;21.50;99.90;;;;;;5012231;28;20520;-74
2021/07/01 02:52:29;;;;;;;15.82;2.65;;;21.50;99.90;;;;;;5011808;28;20462;-73
2021/07/01 02:54:55;;;;;;;12.25;2.92;;;21.50;99.90;;;;;;5014534;28;20028;-74
2021/07/01 02:57:21;;;;;;;6.65;2.85;;;21.50;99.90;;;;;;5014399;28;20037;-74
2021/07/01 02:59:46;;;;;;;11.05;2.42;;;21.50;99.90;;;;;;5014547;28;20080;-74
2021/07/01 03:02:12;;;;;;;10.68;2.50;;;21.60;99.90;;;;;;5014404;28;20042;-73
2021/07/01 03:04:38;;;;;;;10.80;2.05;;;21.60;99.90;;;;;;5014299;28;20413;-74
2021/07/01 03:07:04;;;;;;;8.55;1.98;;;21.60;99.90;;;;;;5014341;28;20053;-74
2021/07/01 03:09:29;;;;;;;7.85;2.28;;;21.60;99.90;;;;;;5013161;28;20085;-73
2021/07/01 03:11:55;;;;;;;14.73;2.15;;;21.60;99.90;;;;;;4996424;28;20034;-73
2021/07/01 03:14:21;;;;;;;11.80;2.92;;;21.60;99.90;;;;;;5014021;28;20049;-74
2021/07/01 03:16:46;;;;;;;19.25;2.33;;;21.60;99.90;;;;;;5014151;28;20083;-73
2021/07/01 03:19:12;;;;;;;8.32;2.28;;;21.60;99.90;;;;;;5014121;28;20026;-74
2021/07/01 03:21:38;;;;;;;18.90;2.72;;;21.60;99.90;;;;;;4996328;28;20386;-74
2021/07/01 03:24:04;;;;;;;4.70;1.85;;;21.60;99.90;;;;;;5013458;28;20105;-74
2021/07/01 03:26:30;;;;;;;8.57;1.65;;;21.50;99.90;;;;;;4996469;28;20500;-73
2021/07/01 03:28:55;;;;;;;11.75;2.03;;;21.60;99.90;;;;;;5013634;28;20029;-74
2021/07/01 03:31:21;;;;;;;7.05;1.88;;;21.50;99.90;;;;;;5014185;28;20026;-73
2021/07/01 03:33:47;;;;;;;4.95;2.15;;;21.50;99.90;;;;;;5014055;28;20026;-74
2021/07/01 03:36:12;;;;;;;10.30;1.85;;;21.50;99.90;;;;;;5013286;28;20115;-73
2021/07/01 03:38:38;;;;;;;13.82;2.28;;;21.50;99.90;;;;;;5012978;28;20033;-74
2021/07/01 03:41:05;;;;;;;8.13;1.70;;;21.50;99.90;;;;;;5013313;28;20069;-74
2021/07/01 03:43:32;;;;;;;6.65;2.17;;;21.60;99.90;;;;;;5013037;28;20042;-74
2021/07/01 03:45:58;;;;;;;6.68;2.15;;;21.60;99.90;;;;;;5013401;28;20069;-74
2021/07/01 03:48:24;;;;;;;6.13;1.90;;;21.60;99.90;;;;;;5013118;28;20038;-74
2021/07/01 03:50:49;;;;;;;10.90;2.53;;;21.60;99.90;;;;;;5013617;28;20036;-73
2021/07/01 03:53:16;;;;;;;14.63;1.80;;;21.60;99.90;;;;;;5013250;28;20036;-74
2021/07/01 03:55:42;;;;;;;3.83;1.48;;;21.60;99.90;;;;;;5013667;28;20018;-73
2021/07/01 03:58:07;;;;;;;10.02;2.05;;;21.70;99.90;;;;;;5012529;28;20025;-72
2021/07/01 04:00:34;;;;;;;5.50;1.70;;;21.70;99.90;;;;;;5013232;28;20021;-73
2021/07/01 04:03:00;;;;;;;14.18;1.80;;;21.80;99.90;;;;;;5013189;28;20566;-73
2021/07/01 04:05:26;;;;;;;6.45;2.10;;;21.90;99.90;;;;;;5013279;28;20026;-73
2021/07/01 04:07:51;;;;;;;10.70;2.03;;;22.00;99.90;;;;;;4995151;28;20033;-73
2021/07/01 04:10:18;;;;;;;9.80;2.08;;;22.10;99.90;;;;;;5013101;28;20068;-73
2021/07/01 04:12:45;;;;;;;13.38;2.13;;;22.00;99.90;;;;;;5012894;28;20501;-74
2021/07/01 04:15:11;;;;;;;10.23;2.13;;;22.10;99.90;;;;;;5012825;28;20025;-74
2021/07/01 04:17:37;;;;;;;4.45;1.85;;;22.10;99.90;;;;;;5011596;28;20085;-74
2021/07/01 04:20:07;;;;;;;10.45;1.50;;;22.30;99.90;;;;;;5011523;28;20037;-74
2021/07/01 04:22:33;;;;;;;11.20;1.50;;;22.40;99.90;;;;;;5011314;28;20041;-74
2021/07/01 04:24:59;;;;;;;10.63;1.58;;;22.70;99.90;;;;;;5012437;28;20048;-74
2021/07/01 04:27:25;;;;;;;9.40;1.67;;;22.80;99.90;;;;;;5012118;28;20474;-73
2021/07/01 04:29:52;;;;;;;8.15;1.60;;;22.90;99.90;;;;;;5012326;28;20032;-73
2021/07/01 04:32:18;;;;;;;3.97;1.70;;;23.10;99.90;;;;;;5011920;28;20021;-74
2021/07/01 04:34:43;;;;;;;6.57;1.80;;;23.20;99.90;;;;;;4993357;28;20034;-74
2021/07/01 04:37:09;;;;;;;17.85;1.92;;;23.40;99.90;;;;;;5012677;28;20046;-74
2021/07/01 04:39:35;;;;;;;7.80;1.77;;;23.60;99.90;;;;;;5012377;28;20050;-74
2021/07/01 04:42:01;;;;;;;9.57;1.63;;;23.80;99.90;;;;;;5010629;28;20034;-74
2021/07/01 04:44:26;;;;;;;11.23;2.15;;;24.20;99.90;;;;;;5012061;28;20556;-73
2021/07/01 04:46:52;;;;;;;6.60;2.13;;;24.80;99.90;;;;;;5011712;28;20034;-74
2021/07/01 04:49:18;;;;;;;7.88;1.80;;;25.50;99.90;;;;;;5010641;28;20057;-73
2021/07/01 04:51:44;;;;;;;7.38;1.75;;;26.10;99.50;;;;;;4994215;28;20018;-74
2021/07/01 04:54:10;;;;;;;11.38;1.90;;;26.80;97.80;;;;;;5011698;28;20033;-74
2021/07/01 04:56:45;;;;;;;8.77;2.38;;;27.10;97.10;;;;;;5012286;28;20038;-74
2021/07/01 04:59:11;;;;;;;4.55;1.35;;;27.60;96.40;;;;;;5012416;28;20022;-74
2021/07/01 05:01:38;;;;;;;8.88;1.45;;;28.30;95.20;;;;;;5012109;28;20026;-74
2021/07/01 05:04:07;;;;;;;4.18;1.10;;;28.60;94.20;;;;;;5012444;28;20065;-74
2021/07/01 05:06:33;;;;;;;7.40;1.63;;;29.10;93.40;;;;;;5011310;28;20018;-73
2021/07/01 05:08:59;;;;;;;18.65;1.45;;;29.60;92.60;;;;;;5010730;28;20049;-74
2021/07/01 05:11:24;;;;;;;6.25;1.75;;;30.20;92.00;;;;;;4994089;28;20030;-73
2021/07/01 05:13:50;;;;;;;5.03;1.20;;;31.20;90.50;;;;;;5010437;28;20209;-74
2021/07/01 05:16:16;;;;;;;10.45;1.58;;;31.50;90.20;;;;;;5011112;28;20087;-73
2021/07/01 05:18:41;;;;;;;10.77;1.40;;;31.90;88.90;;;;;;5011867;28;20041;-74
2021/07/01 05:21:07;;;;;;;18.83;1.70;;;32.40;87.20;;;;;;5012228;28;20592;-74
2021/07/01 05:23:33;;;;;;;4.43;1.35;;;32.80;86.20;;;;;;5011225;28;20053;-74
2021/07/01 05:25:58;;;;;;;13.02;1.60;;;33.20;85.40;;;;;;5010432;28;20026;-74
2021/07/01 05:28:24;;;;;;;8.93;2.17;;;34.10;83.00;;;;;;5011923;28;20038;-74
2021/07/01 05:30:50;;;;;;;7.43;1.63;;;34.00;81.90;;;;;;5011877;28;20013;-73
2021/07/01 05:33:15;;;;;;;15.63;1.42;;;34.20;81.00;;;;;;5016039;28;20096;-74
2021/07/01 05:35:41;;;;;;;8.93;1.83;;;34.50;81.10;;;;;;5015944;28;20046;-75
2021/07/01 05:38:07;;;;;;;13.10;1.65;;;34.90;79.60;;;;;;5016002;28;20030;-74
2021/07/01 05:40:33;;;;;;;9.80;1.30;;;35.10;78.50;;;;;;5016057;28;20459;-74
2021/07/01 05:43:00;;;;;;;8.25;1.58;;;35.10;78.10;;;;;;5015938;28;20034;-75
2021/07/01 05:45:25;;;;;;;6.45;1.40;;;35.20;77.40;;;;;;5015915;28;20038;-75
2021/07/01 05:47:51;;;;;;;4.88;1.10;;;35.60;77.50;;;;;;5015601;28;20018;-74
2021/07/01 05:50:17;;;;;;;12.48;2.03;;;36.20;76.70;;;;;;5015341;28;20018;-74
2021/07/01 05:52:46;;;;;;;7.05;1.77;;;36.40;76.20;;;;;;5015720;28;20494;-75
2021/07/01 05:55:12;;;;;;;11.52;1.40;;;36.10;76.70;;;;;;5015413;28;20441;-75
2021/07/01 05:57:38;;;;;;;14.60;1.63;;;35.70;76.60;;;;;;5015065;28;20041;-75
2021/07/01 06:00:06;;;;;;;8.35;1.42;;;36.20;76.10;;;;;;5014999;28;20041;-75
2021/07/01 06:02:32;;;;;;;6.90;1.55;;;35.30;76.50;;;;;;5015144;28;20034;-75
2021/07/01 06:04:58;;;;;;;19.75;1.67;;;35.30;75.90;;;;;;5014176;28;20021;-75
2021/07/01 06:07:24;;;;;;;4.15;1.23;;;35.00;77.60;;;;;;5014797;28;20510;-75
2021/07/01 06:09:56;;;;;;;7.03;1.58;;;35.20;78.10;;;;;;5014771;28;20026;-75
2021/07/01 06:12:23;;;;;;;12.15;1.75;;;34.90;77.40;;;;;;5014556;28;20030;-75
2021/07/01 06:14:58;;;;;;;8.15;1.55;;;35.10;77.40;;;;;;5015274;28;20474;-75
2021/07/01 06:17:33;;;;;;;6.70;1.25;;;35.90;76.60;;;;;;5014873;28;20065;-75
2021/07/01 06:20:08;;;;;;;14.40;1.50;;;36.70;75.80;;;;;;5014997;28;20068;-75
2021/07/01 06:22:34;;;;;;;7.75;1.25;;;36.40;74.30;;;;;;5015106;28;20112;-74
2021/07/01 06:25:01;;;;;;;7.70;1.45;;;36.70;74.40;;;;;;5015138;28;20026;-73
2021/07/01 06:27:33;;;;;;;10.10;2.10;;;36.80;74.50;;;;;;5014958;28;20026;-74
2021/07/01 06:30:03;;;;;;;10.10;1.30;;;36.80;74.70;;;;;;5015013;28;20469;-73
2021/07/01 06:32:34;;;;;;;9.30;1.35;;;36.60;74.10;;;;;;5014904;28;20410;-73
2021/07/01 06:35:00;;;;;;;;;;;37.30;74.00;;;;;;5015054;28;20026;-73
2021/07/01 06:37:31;;;;;;;6.35;1.60;;;36.70;74.20;;;;;;5015107;28;19905;-74
2021/07/01 06:39:59;;;;;;;9.07;1.55;;;36.60;74.40;;;;;;5014815;28;20022;-74
2021/07/01 06:42:27;;;;;;;7.28;1.85;;;36.70;74.30;;;;;;5014315;28;20122;-74
2021/07/01 06:44:54;;;;;;;7.70;2.08;;;36.70;75.10;;;;;;5013971;28;20382;-74
2021/07/01 06:47:21;;;;;;;18.88;2.28;;;37.30;74.00;;;;;;5014779;28;20360;-74
2021/07/01 06:49:50;;;;;;;18.83;2.90;;;37.30;73.70;;;;;;5014495;28;20033;-74
2021/07/01 06:52:16;;;;;;;14.57;2.47;;;36.60;74.40;;;;;;5014816;28;20033;-73
2021/07/01 06:54:43;;;;;;;33.30;4.25;;;36.00;75.00;;;;;;5014603;28;20159;-73
2021/07/01 06:57:09;;;;;;;21.17;1.90;;;35.20;76.50;;;;;;5014408;28;20026;-74
2021/07/01 06:59:35;;;;;;;6.15;1.88;;;34.50;78.10;;;;;;5014621;28;20149;-73
2021/07/01 07:02:02;;;;;;;5.30;1.45;;;34.00;78.80;;;;;;5014276;28;20030;-74
2021/07/01 07:04:30;;;;;;;17.08;1.92;;;33.10;80.70;;;;;;5014272;28;20026;-74
2021/07/01 07:06:57;;;;;;;12.63;1.83;;;31.80;82.50;;;;;;5011226;28;20045;-74
2021/07/01 07:09:23;;;;;;;13.63;2.35;;;31.40;85.00;;;;;;5013910;28;20041;-74
2021/07/01 07:11:50;;;;;;;8.93;1.70;;;30.90;88.60;;;;;;5014155;28;20355;-73
2021/07/01 07:14:17;;;;;;;9.85;2.10;;;30.60;89.50;;;;;;5013383;28;20084;-73
2021/07/01 07:16:45;;;;;;;12.73;1.95;;;30.30;90.10;;;;;;5013410;28;20043;-73
2021/07/01 07:19:12;;;;;;;21.98;2.13;;;30.00;90.70;;;;;;5013557;28;20097;-73
2021/07/01 07:21:45;;;;;;;10.63;1.38;;;29.90;90.60;;;;;;5013675;28;20066;-74
2021/07/01 07:24:17;;;;;;;8.70;1.58;;;29.80;91.00;;;;;;5013783;28;20025;-74
2021/07/01 07:26:43;;;;;;;;;;;29.60;91.10;;;;;;5014596;28;20421;-73
2021/07/01 07:29:15;;;;;;;18.60;2.35;;;29.50;91.30;;;;;;5013934;28;19905;-75
2021/07/01 07:31:42;;;;;;;8.90;1.90;;;29.50;91.30;;;;;;5013326;28;20765;-73
2021/07/01 07:34:08;;;;;;;10.45;1.55;;;29.50;90.70;;;;;;5012518;28;20022;-74
2021/07/01 07:36:35;;;;;;;9.77;2.13;;;29.40;91.00;;;;;;5013500;28;20054;-73
2021/07/01 07:39:03;;;;;;;20.02;3.03;;;29.40;90.90;;;;;;5012867;28;20125;-73
2021/07/01 07:41:29;;;;;;;15.32;2.05;;;29.40;90.80;;;;;;5012340;28;20038;-75
2021/07/01 07:43:55;;;;;;;16.80;2.33;;;29.60;90.80;;;;;;5012830;28;20029;-74
2021/07/01 07:46:24;;;;;;;7.50;1.83;;;29.50;90.90;;;;;;5012881;28;20075;-75
2021/07/01 07:48:50;;;;;;;7.38;1.77;;;29.80;90.90;;;;;;5012019;28;20026;-74
2021/07/01 07:51:20;;;;;;;18.52;2.75;;;30.20;90.60;;;;;;5012095;28;20053;-75
2021/07/01 07:53:52;;;;;;;12.82;2.00;;;30.30;90.20;;;;;;5009570;28;20034;-74
2021/07/01 07:56:26;;;;;;;20.08;2.35;;;30.20;90.50;;;;;;5011242;28;20014;-73
2021/07/01 07:58:54;;;;;;;10.45;1.63;;;30.40;90.50;;;;;;5012221;28;20034;-75
2021/07/01 08:01:21;;;;;;;8.50;1.83;;;30.50;90.30;;;;;;5012563;28;20100;-74
2021/07/01 08:03:51;;;;;;;8.80;1.65;;;30.50;90.40;;;;;;5013199;28;20390;-74
2021/07/01 08:06:16;;;;;;;13.65;2.25;;;30.70;90.20;;;;;;5012439;28;20037;-74
2021/07/01 08:08:43;;;;;;;9.23;2.13;;;30.30;90.50;;;;;;5012545;28;20041;-75
2021/07/01 08:11:10;;;;;;;11.27;2.00;;;30.00;90.90;;;;;;5012495;28;20025;-75
2021/07/01 08:13:39;;;;;;;19.08;2.50;;;30.10;91.20;;;;;;5011870;28;20431;-75
2021/07/01 08:16:06;;;;;;;6.18;1.92;;;30.00;90.70;;;;;;5012786;28;20462;-75
2021/07/01 08:18:39;;;;;;;16.95;2.03;;;30.00;90.90;;;;;;5011355;28;20013;-74
2021/07/01 08:21:09;;;;;;;17.25;2.83;;;30.10;91.10;;;;;;5011835;28;20022;-75
2021/07/01 08:23:36;;;;;;;19.63;2.17;;;30.30;91.10;;;;;;5012718;28;20091;-74
2021/07/01 08:26:03;;;;;;;11.88;1.90;;;30.40;90.90;;;;;;5013124;28;20591;-74
2021/07/01 08:28:29;;;;;;;17.17;2.42;;;30.60;90.30;;;;;;5011556;28;20030;-75
2021/07/01 08:31:04;;;;;;;19.02;2.40;;;30.80;90.10;;;;;;5012911;28;20034;-75
2021/07/01 08:33:35;;;;;;;13.45;1.67;;;31.10;90.30;;;;;;5012810;28;20057;-75
2021/07/01 08:36:04;;;;;;;9.30;2.10;;;31.30;89.50;;;;;;5012171;28;20025;-75
2021/07/01 08:38:36;;;;;;;11.27;1.88;;;31.30;89.10;;;;;;5012011;28;20522;-75
2021/07/01 08:41:16;;;;;;;9.48;2.15;;;31.30;88.70;;;;;;5011426;28;20014;-75
2021/07/01 08:43:54;;;;;;;21.63;3.13;;;31.50;89.20;;;;;;5009097;28;20445;-74
2021/07/01 08:46:37;;;;;;;17.80;2.63;;;31.60;89.00;;;;;;5005245;28;20125;-73
2021/07/01 08:49:10;;;;;;;6.60;2.15;;;31.80;88.60;;;;;;5008556;28;20386;-74
2021/07/01 08:51:36;;;;;;;10.95;2.13;;;31.90;88.70;;;;;;5009774;28;20482;-75
2021/07/01 08:54:15;;;;;;;19.20;2.55;;;32.00;87.90;;;;;;5010064;28;20030;-74
2021/07/01 08:56:43;;;;;;;10.50;2.35;;;31.80;88.10;;;;;;4999596;28;20176;-74
2021/07/01 08:59:11;;;;;;;8.18;1.75;;;31.90;88.60;;;;;;5007360;28;20022;-74
2021/07/01 09:01:38;;;;;;;15.38;1.67;;;32.20;88.50;;;;;;5010962;28;20061;-74
2021/07/01 09:04:09;;;;;;;11.88;2.15;;;32.50;87.70;;;;;;5011157;28;20108;-74
2021/07/01 09:06:39;;;;;;;10.45;1.88;;;32.80;87.10;;;;;;5010708;28;20022;-74
2021/07/01 09:09:07;;;;;;;11.93;2.65;;;33.00;86.70;;;;;;5009715;28;20558;-74
2021/07/01 09:11:41;;;;;;;10.55;2.13;;;32.60;86.50;;;;;;5009810;28;20036;-74
2021/07/01 09:14:10;;;;;;;11.68;1.95;;;32.30;86.90;;;;;;5009994;28;20022;-74
2021/07/01 09:16:37;;;;;;;16.63;2.28;;;31.90;87.70;;;;;;5010758;28;20030;-74
2021/07/01 09:19:04;;;;;;;13.55;1.88;;;31.60;87.00;;;;;;5010609;28;20034;-75
2021/07/01 09:21:31;;;;;;;9.30;2.28;;;31.40;87.00;;;;;;5011408;28;20029;-75
2021/07/01 09:24:00;;;;;;;15.57;2.33;;;31.20;89.30;;;;;;5009935;28;20022;-74
2021/07/01 09:26:26;;;;;;;13.05;2.22;;;31.00;90.90;;;;;;5010058;28;20527;-74
2021/07/01 09:28:53;;;;;;;18.52;3.15;;;30.80;92.20;;;;;;5009595;28;20014;-74
2021/07/01 09:31:22;;;;;;;16.63;2.90;;;30.40;93.20;;;;;;5009551;28;20080;-74
2021/07/01 09:33:49;;;;;;;11.02;2.72;;;30.00;93.90;;;;;;5008296;28;20022;-74
2021/07/01 09:36:18;;;;;;;14.30;2.40;;;29.70;94.30;;;;;;5009232;28;20022;-75
2021/07/01 09:38:46;;;;;;;8.13;2.35;;;29.50;95.10;;;;;;5010553;28;20022;-75
2021/07/01 09:41:13;;;;;;;12.82;2.35;;;29.60;95.40;;;;;;5010841;28;20022;-75
2021/07/01 09:43:40;;;;;;;19.95;2.65;;;29.90;95.60;;;;;;5010414;28;20026;-75
2021/07/01 09:46:12;;;;;;;14.85;2.08;;;30.20;95.40;;;;;;5010963;28;20033;-74
2021/07/01 09:48:46;;;;;;;11.15;1.55;;;30.60;97.10;;;;;;5010640;28;20116;-74
2021/07/01 09:51:13;;;;;;;14.13;2.10;;;30.80;98.00;;;;;;5010460;28;20109;-74
2021/07/01 09:53:40;;;;;;;8.77;1.90;;;31.00;97.80;;;;;;5011220;28;20040;-74
2021/07/01 09:56:08;;;;;;;14.18;2.30;;;31.10;98.00;;;;;;5010928;28;20105;-74
2021/07/01 09:58:46;;;;;;;8.27;1.40;;;31.30;97.60;;;;;;5011392;28;20437;-75
2021/07/01 10:01:37;;;;;;;4.70;1.30;;;31.60;96.90;;;;;;5010703;28;20014;-75
2021/07/01 10:04:03;;;;;;;8.65;1.80;;;31.80;96.60;;;;;;5010688;28;20030;-75
2021/07/01 10:06:29;;;;;;;7.68;1.73;;;31.80;96.20;;;;;;5011187;28;20033;-75
2021/07/01 10:08:55;;;;;;;8.93;1.83;;;32.00;96.40;;;;;;5010608;28;20398;-74
2021/07/01 10:11:38;;;;;;;9.70;1.50;;;32.10;96.40;;;;;;5010851;28;20026;-75
2021/07/01 10:14:08;;;;;;;13.32;1.83;;;32.00;95.70;;;;;;5010682;28;20018;-75
2021/07/01 10:16:35;;;;;;;13.48;2.13;;;32.00;95.60;;;;;;5010998;28;20474;-75
2021/07/01 10:19:03;;;;;;;10.95;1.80;;;32.10;95.60;;;;;;5013298;28;20022;-75
2021/07/01 10:21:30;;;;;;;14.20;2.03;;;32.10;94.60;;;;;;5014461;28;20417;-75
2021/07/01 10:24:21;;;;;;;16.13;2.30;;;32.10;94.70;;;;;;5014124;28;20028;-75
2021/07/01 10:26:49;;;;;;;15.13;1.73;;;32.20;94.50;;;;;;5014323;28;20018;-75
2021/07/01 10:29:16;;;;;;;12.60;1.92;;;32.00;94.40;;;;;;5014257;28;20032;-75
2021/07/01 10:31:57;;;;;;;12.65;1.70;;;31.80;94.50;;;;;;5014075;28;20022;-74
2021/07/01 10:34:25;;;;;;;8.50;1.77;;;31.40;94.50;;;;;;5007273;28;20096;-75
2021/07/01 10:37:26;;;;;;;8.57;1.63;;;30.90;91.50;;;;;;5014298;28;20026;-75
2021/07/01 10:39:53;;;;;;;;;;;30.20;89.00;;;;;;4969752;28;20027;-74
2021/07/01 10:42:19;;;;;;;7.55;2.10;;;29.80;89.30;;;;;;4999980;28;19913;-74
2021/07/01 10:44:45;;;;;;;9.15;1.75;;;29.00;90.00;;;;;;5013855;28;20490;-74
2021/07/01 10:47:26;;;;;;;5.70;1.63;;;28.70;90.30;;;;;;5013853;28;20467;-74
2021/07/01 10:49:52;;;;;;;8.47;1.90;;;28.80;90.70;;;;;;5013829;28;20022;-74
2021/07/01 10:52:18;;;;;;;13.18;1.55;;;29.10;90.20;;;;;;5013585;28;20097;-75
2021/07/01 10:55:00;;;;;;;7.80;1.58;;;29.10;89.50;;;;;;5013156;28;20021;-74
2021/07/01 10:57:29;;;;;;;6.78;1.48;;;29.40;89.90;;;;;;5013529;28;20034;-74
2021/07/01 10:59:57;;;;;;;5.60;1.30;;;29.60;88.70;;;;;;5013726;28;20022;-74
2021/07/01 11:02:29;;;;;;;9.43;1.60;;;29.70;88.80;;;;;;5013542;28;20395;-74
2021/07/01 11:04:56;;;;;;;;;;;29.60;87.20;;;;;;5014115;28;20034;-74
2021/07/01 11:07:22;;;;;;;6.75;1.55;;;29.40;87.20;;;;;;5013651;28;19913;-74
2021/07/01 11:09:53;;;;;;;6.63;1.50;;;29.30;87.40;;;;;;5013118;28;20548;-74
2021/07/01 11:12:21;;;;;;;7.30;1.30;;;29.30;87.90;;;;;;4995620;28;20030;-74
2021/07/01 11:14:49;;;;;;;4.22;1.13;;;29.20;86.90;;;;;;5013820;28;20425;-75
2021/07/01 11:17:15;;;;;;;14.95;1.80;;;29.30;87.90;;;;;;5013197;28;20026;-74
2021/07/01 11:19:46;;;;;;;14.73;1.88;;;29.30;88.80;;;;;;5012785;28;20471;-74
2021/07/01 11:22:14;;;;;;;10.30;1.93;;;29.40;89.70;;;;;;5013178;28;20084;-74
2021/07/01 11:24:45;;;;;;;10.63;2.42;;;29.30;90.50;;;;;;5013404;28;20518;-74
2021/07/01 11:27:11;;;;;;;9.63;1.70;;;29.40;90.60;;;;;;5013124;28;20101;-74
2021/07/01 11:29:47;;;;;;;13.63;1.80;;;29.60;90.80;;;;;;5011909;28;20029;-74
2021/07/01 11:32:19;;;;;;;13.25;2.30;;;29.90;90.60;;;;;;5011431;28;20030;-74
2021/07/01 11:34:49;;;;;;;11.98;1.90;;;30.30;91.90;;;;;;5012668;28;20022;-74
2021/07/01 11:37:30;;;;;;;8.75;1.67;;;30.70;91.50;;;;;;5006749;28;20109;-74
2021/07/01 11:40:09;;;;;;;14.00;2.13;;;31.10;91.40;;;;;;5013026;28;20470;-74
2021/07/01 11:42:36;;;;;;;14.70;2.20;;;31.30;94.30;;;;;;5008895;28;20046;-74
2021/07/01 11:45:02;;;;;;;11.68;1.85;;;31.60;94.80;;;;;;5011484;28;20030;-73
2021/07/01 11:47:30;;;;;;;10.40;2.20;;;31.80;94.30;;;;;;5011364;28;20038;-74
2021/07/01 11:49:56;;;;;;;11.35;2.42;;;31.90;94.00;;;;;;5012382;28;20029;-74
2021/07/01 11:52:23;;;;;;;5.10;1.83;;;32.00;93.70;;;;;;5012513;28;20276;-74
2021/07/01 11:54:48;;;;;;;12.05;2.33;;;32.20;93.20;;;;;;5012438;28;20379;-74
2021/07/01 11:57:14;;;;;;;15.38;2.10;;;32.30;90.70;;;;;;5011784;28;20026;-74
2021/07/01 11:59:40;;;;;;;3.35;1.20;;;31.30;81.20;;;;;;5011856;28;20106;-74
2021/07/01 12:02:07;;;;;;;6.60;1.00;;;30.40;81.70;;;;;;4994585;28;20044;-74
2021/07/01 12:04:35;;;;;;;14.50;1.15;;;29.80;82.80;;;;;;5010869;28;20017;-74
2021/07/01 12:07:17;;;;;;;7.97;1.17;;;28.90;81.30;;;;;;5011065;28;20041;-74
2021/07/01 12:09:44;;;;;;;5.93;1.13;;;28.10;79.20;;;;;;5012329;28;20096;-74
2021/07/01 12:12:11;;;;;;;12.85;1.23;;;27.70;80.30;;;;;;5011098;28;20529;-73
2021/07/01 12:14:45;;;;;;;6.80;0.82;;;27.40;80.40;;;;;;5011873;28;20032;-74
2021/07/01 12:17:12;;;;;;;1.15;0.45;;;27.10;81.50;;;;;;5011835;28;20026;-74
2021/07/01 12:19:59;;;;;;;10.05;0.98;;;26.70;82.40;;;;;;5011480;28;20017;-74
2021/07/01 12:22:45;;;;;;;4.43;0.90;;;26.20;84.30;;;;;;5011446;28;20541;-74
2021/07/01 12:25:18;;;;;;;5.75;2.55;;;25.90;85.50;;;;;;5001112;28;20034;-77
2021/07/01 12:27:44;;;;;;;3.70;0.80;;;25.70;88.10;;;;;;5009294;28;20041;-75
2021/07/01 12:30:10;;;;;;;4.30;0.98;;;25.40;87.90;;;;;;5012106;28;20390;-76
2021/07/01 12:32:37;;;;;;;3.17;0.70;;;25.30;88.90;;;;;;5012147;28;20345;-76
2021/07/01 12:35:33;;;;;;;3.78;0.93;;;25.10;89.90;;;;;;5011913;28;20018;-77
2021/07/01 12:38:11;;;;;;;4.50;1.00;;;25.00;90.30;;;;;;5010303;28;20032;-77
2021/07/01 12:40:58;;;;;;;2.75;1.00;;;25.10;90.10;;;;;;5011103;28;20030;-78
2021/07/01 12:43:52;;;;;;;9.40;1.40;;;25.10;90.60;;;;;;5011489;28;20117;-77
2021/07/01 12:46:39;;;;;;;6.88;1.52;;;25.00;91.20;;;;;;5002892;28;20030;-78
2021/07/01 12:49:05;;;;;;;4.07;1.00;;;24.90;91.90;;;;;;5007527;28;20126;-76